createdAt,value
2022-08-18T00:00:20.746Z,21.90
2022-08-18T00:01:45.123Z,21.90
2022-08-18T00:03:16.983Z,21.90
2022-08-18T00:04:49.968Z,21.90
2022-08-18T00:06:15.478Z,21.90
2022-08-18T00:07:37.673Z,21.90
2022-08-18T00:09:02.163Z,21.90
2022-08-18T00:10:25.223Z,21.90
2022-08-18T00:11:47.412Z,21.90
2022-08-18T00:13:09.579Z,21.90
2022-08-18T00:14:31.850Z,21.80
2022-08-18T00:15:54.099Z,21.80
2022-08-18T00:17:16.968Z,21.90
2022-08-18T00:18:39.275Z,21.90
2022-08-18T00:20:02.674Z,21.90
2022-08-18T00:21:24.812Z,21.80
2022-08-18T00:22:47.542Z,21.80
2022-08-18T00:24:09.640Z,21.80
2022-08-18T00:25:31.832Z,21.80
2022-08-18T00:26:54.758Z,21.80
2022-08-18T00:28:17.599Z,21.80
2022-08-18T00:29:39.631Z,21.80
2022-08-18T00:31:01.780Z,21.80
2022-08-18T00:32:37.474Z,21.80
2022-08-18T00:34:00.421Z,21.80
2022-08-18T00:35:34.865Z,21.70
2022-08-18T00:36:56.903Z,21.70
2022-08-18T00:38:24.729Z,21.70
2022-08-18T00:39:48.011Z,21.70
2022-08-18T00:41:10.385Z,21.70
2022-08-18T00:42:39.098Z,21.70
2022-08-18T00:44:01.268Z,21.70
2022-08-18T00:45:29.058Z,21.70
2022-08-18T00:46:51.295Z,21.70
2022-08-18T00:48:14.286Z,21.70
2022-08-18T00:49:38.243Z,21.70
2022-08-18T00:51:06.999Z,21.70
2022-08-18T00:52:29.120Z,21.70
2022-08-18T00:54:08.993Z,21.70
2022-08-18T00:55:33.601Z,21.70
2022-08-18T00:57:00.632Z,21.70
2022-08-18T00:58:36.000Z,21.70
2022-08-18T01:00:08.006Z,21.70
2022-08-18T01:01:32.997Z,21.70
2022-08-18T01:02:58.872Z,21.60
2022-08-18T01:05:52.334Z,21.60
2022-08-18T01:07:25.096Z,21.60
2022-08-18T01:08:47.338Z,21.60
2022-08-18T01:10:09.678Z,21.60
2022-08-18T01:11:33.129Z,21.60
2022-08-18T01:12:57.914Z,21.60
2022-08-18T01:14:20.357Z,21.50
2022-08-18T01:15:42.470Z,21.50
2022-08-18T01:17:23.190Z,21.50
2022-08-18T01:19:03.803Z,21.50
2022-08-18T01:20:52.126Z,21.50
2022-08-18T01:22:37.394Z,21.40
2022-08-18T01:24:02.411Z,21.40
2022-08-18T01:25:43.028Z,21.40
2022-08-18T01:27:05.208Z,21.40
2022-08-18T01:28:29.110Z,21.40
2022-08-18T01:29:51.279Z,21.40
2022-08-18T01:31:37.896Z,21.40
2022-08-18T01:33:00.087Z,21.40
2022-08-18T01:34:27.662Z,21.40
2022-08-18T01:35:49.788Z,21.40
2022-08-18T01:37:11.899Z,21.40
2022-08-18T01:38:34.211Z,21.40
2022-08-18T01:41:27.238Z,21.30
2022-08-18T01:41:40.675Z,21.30
2022-08-18T01:43:05.446Z,21.30
2022-08-18T01:44:27.524Z,21.30
2022-08-18T01:45:49.636Z,21.30
2022-08-18T01:47:12.545Z,21.30
2022-08-18T01:48:36.872Z,21.30
2022-08-18T01:50:00.781Z,21.40
2022-08-18T01:51:36.256Z,21.40
2022-08-18T01:53:05.464Z,21.40
2022-08-18T01:54:30.426Z,21.40
2022-08-18T01:55:52.867Z,21.40
2022-08-18T01:57:16.248Z,21.40
2022-08-18T01:58:38.595Z,21.40
2022-08-18T02:00:01.121Z,21.40
2022-08-18T02:01:25.080Z,21.40
2022-08-18T02:03:02.686Z,21.40
2022-08-18T02:04:35.703Z,21.40
2022-08-18T02:06:01.798Z,21.50
2022-08-18T02:07:24.121Z,21.50
2022-08-18T02:08:56.418Z,21.50
2022-08-18T02:10:19.869Z,21.50
2022-08-18T02:11:42.075Z,21.50
2022-08-18T02:13:04.946Z,21.60
2022-08-18T02:14:27.456Z,21.50
2022-08-18T02:15:49.828Z,21.60
2022-08-18T02:17:13.866Z,21.60
2022-08-18T02:18:48.231Z,21.60
2022-08-18T02:20:13.915Z,21.60
2022-08-18T02:21:36.124Z,21.60
2022-08-18T02:23:01.134Z,21.60
2022-08-18T02:24:23.215Z,21.60
2022-08-18T02:25:45.452Z,21.60
2022-08-18T02:27:09.025Z,21.70
2022-08-18T02:28:31.149Z,21.70
2022-08-18T02:29:53.323Z,21.70
2022-08-18T02:31:21.174Z,21.70
2022-08-18T02:32:43.430Z,21.70
2022-08-18T02:34:05.466Z,21.70
2022-08-18T02:35:27.914Z,21.70
2022-08-18T02:36:50.112Z,21.80
2022-08-18T02:38:12.227Z,21.80
2022-08-18T02:39:39.572Z,21.90
2022-08-18T02:41:06.537Z,21.90
2022-08-18T02:42:28.759Z,22.00
2022-08-18T02:43:50.865Z,22.00
2022-08-18T02:45:14.293Z,22.00
2022-08-18T02:46:38.029Z,22.00
2022-08-18T02:48:00.092Z,22.00
2022-08-18T02:49:22.487Z,22.10
2022-08-18T02:50:47.376Z,22.00
2022-08-18T02:52:09.554Z,22.00
2022-08-18T02:53:32.805Z,22.00
2022-08-18T02:54:55.027Z,22.00
2022-08-18T02:56:32.733Z,22.00
2022-08-18T02:58:03.614Z,22.10
2022-08-18T02:59:27.840Z,22.10
2022-08-18T03:00:50.133Z,22.10
2022-08-18T03:02:13.758Z,22.10
2022-08-18T03:03:36.276Z,22.10
2022-08-18T03:04:58.351Z,22.10
2022-08-18T03:06:21.862Z,22.10
2022-08-18T03:07:44.397Z,22.10
2022-08-18T03:09:08.832Z,22.10
2022-08-18T03:10:34.063Z,22.10
2022-08-18T03:11:57.201Z,22.10
2022-08-18T03:13:19.536Z,22.00
2022-08-18T03:14:41.669Z,22.00
2022-08-18T03:16:04.066Z,22.00
2022-08-18T03:17:26.134Z,22.00
2022-08-18T03:18:48.542Z,22.00
2022-08-18T03:20:11.085Z,21.90
2022-08-18T03:21:38.029Z,22.00
2022-08-18T03:23:09.574Z,21.90
2022-08-18T03:24:32.869Z,22.00
2022-08-18T03:25:55.197Z,22.00
2022-08-18T03:27:17.283Z,22.00
2022-08-18T03:28:44.990Z,22.00
2022-08-18T03:30:11.409Z,22.00
2022-08-18T03:31:34.622Z,21.90
2022-08-18T03:32:57.830Z,21.90
2022-08-18T03:34:20.813Z,21.90
2022-08-18T03:35:42.917Z,21.80
2022-08-18T03:37:05.602Z,21.80
2022-08-18T03:38:27.710Z,21.80
2022-08-18T03:39:51.815Z,21.80
2022-08-18T03:41:16.290Z,21.80
2022-08-18T03:42:58.434Z,21.80
2022-08-18T03:44:25.098Z,21.80
2022-08-18T03:45:47.132Z,21.80
2022-08-18T03:47:10.868Z,21.70
2022-08-18T03:48:33.604Z,21.70
2022-08-18T03:49:55.800Z,21.70
2022-08-18T03:51:22.430Z,21.70
2022-08-18T03:52:50.087Z,21.70
2022-08-18T03:54:13.901Z,21.70
2022-08-18T03:55:36.002Z,21.70
2022-08-18T03:56:58.465Z,21.60
2022-08-18T03:58:20.577Z,21.60
2022-08-18T03:59:43.529Z,21.70
2022-08-18T04:01:05.703Z,21.70
2022-08-18T04:02:28.436Z,21.70
2022-08-18T04:03:53.284Z,21.70
2022-08-18T04:05:15.460Z,21.70
2022-08-18T04:06:44.533Z,21.70
2022-08-18T04:08:07.053Z,21.70
2022-08-18T04:09:30.929Z,21.70
2022-08-18T04:10:54.369Z,21.80
2022-08-18T04:12:17.351Z,21.80
2022-08-18T04:13:39.803Z,21.80
2022-08-18T04:15:01.940Z,21.80
2022-08-18T04:16:25.782Z,21.90
2022-08-18T04:18:03.153Z,21.90
2022-08-18T04:19:28.508Z,21.90
2022-08-18T04:20:57.698Z,21.90
2022-08-18T04:22:23.259Z,22.00
2022-08-18T04:23:45.558Z,22.00
2022-08-18T04:25:11.564Z,22.10
2022-08-18T04:26:39.551Z,22.10
2022-08-18T04:28:03.437Z,22.10
2022-08-18T04:29:26.684Z,22.10
2022-08-18T04:30:48.824Z,22.10
2022-08-18T04:32:11.108Z,22.10
2022-08-18T04:33:33.233Z,22.20
2022-08-18T04:34:55.697Z,22.20
2022-08-18T04:36:21.024Z,22.20
2022-08-18T04:37:43.935Z,22.30
2022-08-18T04:39:08.277Z,22.30
2022-08-18T04:40:33.888Z,22.30
2022-08-18T04:41:56.185Z,22.30
2022-08-18T04:43:18.335Z,22.30
2022-08-18T04:44:41.995Z,22.30
2022-08-18T04:46:04.162Z,22.30
2022-08-18T04:47:26.263Z,22.40
2022-08-18T04:48:48.434Z,22.40
2022-08-18T04:50:11.167Z,22.40
2022-08-18T04:52:27.016Z,22.40
2022-08-18T04:53:34.487Z,22.40
2022-08-18T04:54:56.674Z,22.50
2022-08-18T04:56:26.985Z,22.50
2022-08-18T04:57:49.149Z,22.50
2022-08-18T04:59:13.527Z,22.50
2022-08-18T05:00:35.605Z,22.50
2022-08-18T05:02:00.868Z,22.60
2022-08-18T05:03:24.209Z,22.60
2022-08-18T05:04:49.643Z,22.60
2022-08-18T05:06:12.141Z,22.70
2022-08-18T05:07:34.417Z,22.70
2022-08-18T05:09:09.831Z,22.70
2022-08-18T05:10:32.055Z,22.80
2022-08-18T05:11:54.147Z,22.80
2022-08-18T05:13:17.678Z,22.80
2022-08-18T05:14:41.790Z,22.90
2022-08-18T05:16:11.609Z,22.90
2022-08-18T05:17:39.495Z,22.90
2022-08-18T05:19:04.479Z,22.90
2022-08-18T05:20:30.213Z,22.90
2022-08-18T05:21:53.676Z,22.90
2022-08-18T05:23:23.265Z,22.90
2022-08-18T05:24:45.868Z,22.90
2022-08-18T05:26:08.779Z,22.90
2022-08-18T05:27:35.182Z,22.90
2022-08-18T05:29:04.372Z,22.90
2022-08-18T05:30:41.228Z,23.00
2022-08-18T05:32:06.666Z,23.00
2022-08-18T05:33:28.934Z,23.10
2022-08-18T05:34:51.799Z,23.10
2022-08-18T05:36:25.836Z,23.20
2022-08-18T05:38:05.821Z,23.30
2022-08-18T05:39:40.445Z,23.40
2022-08-18T05:41:07.686Z,23.50
2022-08-18T05:42:39.697Z,23.70
2022-08-18T05:44:02.491Z,23.90
2022-08-18T05:45:24.827Z,24.10
2022-08-18T05:46:54.574Z,24.30
2022-08-18T05:48:16.810Z,24.40
2022-08-18T05:49:40.053Z,24.50
2022-08-18T05:51:28.069Z,24.60
2022-08-18T05:52:57.516Z,24.60
2022-08-18T05:54:40.435Z,24.60
2022-08-18T05:56:24.537Z,24.70
2022-08-18T05:58:02.411Z,24.70
2022-08-18T05:59:30.342Z,24.70
2022-08-18T06:00:59.566Z,24.70
2022-08-18T06:02:55.051Z,24.70
2022-08-18T06:04:26.997Z,24.70
2022-08-18T06:06:00.311Z,24.60
2022-08-18T06:07:39.091Z,24.60
2022-08-18T06:09:34.050Z,24.50
2022-08-18T06:10:56.147Z,24.50
2022-08-18T06:12:38.167Z,24.50
2022-08-18T06:14:01.379Z,24.50
2022-08-18T06:15:32.317Z,24.40
2022-08-18T06:17:06.412Z,24.40
2022-08-18T06:18:54.422Z,24.40
2022-08-18T06:20:33.528Z,24.30
2022-08-18T06:22:34.790Z,24.30
2022-08-18T06:24:25.449Z,24.30
2022-08-18T06:26:06.478Z,24.40
2022-08-18T06:27:55.641Z,24.40
2022-08-18T06:29:23.082Z,24.50
2022-08-18T06:31:10.990Z,24.50
2022-08-18T06:33:06.509Z,24.50
2022-08-18T06:34:50.128Z,24.50
2022-08-18T06:36:19.400Z,24.50
2022-08-18T06:38:22.408Z,24.50
2022-08-18T06:39:51.075Z,24.60
2022-08-18T06:41:41.996Z,24.70
2022-08-18T06:43:12.407Z,24.70
2022-08-18T06:44:48.965Z,24.90
2022-08-18T06:46:19.752Z,25.00
2022-08-18T06:47:53.509Z,25.10
2022-08-18T06:49:39.841Z,25.20
2022-08-18T06:51:04.489Z,25.30
2022-08-18T06:52:29.211Z,25.30
2022-08-18T06:54:05.089Z,25.40
2022-08-18T06:55:48.552Z,25.50
2022-08-18T06:57:53.079Z,25.50
2022-08-18T06:59:34.210Z,25.50
2022-08-18T07:01:06.816Z,25.60
2022-08-18T07:02:40.365Z,25.60
2022-08-18T07:04:02.519Z,25.70
2022-08-18T07:05:28.962Z,25.70
2022-08-18T07:06:51.144Z,25.80
2022-08-18T07:08:15.194Z,25.80
2022-08-18T07:09:40.601Z,25.90
2022-08-18T07:11:22.866Z,26.00
2022-08-18T07:12:44.887Z,26.10
2022-08-18T07:14:24.288Z,26.10
2022-08-18T07:15:48.278Z,26.10
2022-08-18T07:17:22.625Z,26.20
2022-08-18T07:19:13.256Z,26.10
2022-08-18T07:20:48.538Z,26.10
2022-08-18T07:22:13.694Z,26.00
2022-08-18T07:23:39.926Z,26.00
2022-08-18T07:25:05.590Z,26.10
2022-08-18T07:26:28.089Z,26.10
2022-08-18T07:27:51.483Z,26.20
2022-08-18T07:29:15.614Z,26.20
2022-08-18T07:30:44.110Z,26.20
2022-08-18T07:32:21.189Z,26.20
2022-08-18T07:33:50.221Z,26.20
2022-08-18T07:35:17.518Z,26.10
2022-08-18T07:36:54.980Z,26.00
2022-08-18T07:38:41.532Z,26.00
2022-08-18T07:40:07.019Z,26.10
2022-08-18T07:41:44.585Z,26.20
2022-08-18T07:43:15.056Z,26.30
2022-08-18T07:44:44.382Z,26.40
2022-08-18T07:46:13.452Z,26.50
2022-08-18T07:48:07.192Z,26.60
2022-08-18T07:49:46.041Z,26.70
2022-08-18T07:51:23.677Z,26.90
2022-08-18T07:52:48.571Z,26.90
2022-08-18T07:54:49.258Z,26.90
2022-08-18T07:56:42.943Z,27.00
2022-08-18T07:58:29.732Z,27.00
2022-08-18T08:00:20.601Z,27.00
2022-08-18T08:01:52.882Z,26.90
2022-08-18T08:03:30.619Z,26.90
2022-08-18T08:05:13.295Z,26.90
2022-08-18T08:06:41.329Z,26.90
2022-08-18T08:08:10.517Z,26.90
2022-08-18T08:09:53.297Z,26.90
2022-08-18T08:11:21.031Z,26.90
2022-08-18T08:13:01.847Z,27.00
2022-08-18T08:14:45.822Z,27.00
2022-08-18T08:16:18.113Z,27.00
2022-08-18T08:18:09.319Z,27.10
2022-08-18T08:20:00.169Z,27.20
2022-08-18T08:21:28.917Z,27.30
2022-08-18T08:23:04.512Z,27.40
2022-08-18T08:24:31.393Z,27.40
2022-08-18T08:26:03.006Z,27.40
2022-08-18T08:27:54.826Z,27.50
2022-08-18T08:29:35.397Z,27.70
2022-08-18T08:31:25.477Z,28.00
2022-08-18T08:33:11.187Z,28.10
2022-08-18T08:34:36.065Z,28.20
2022-08-18T08:36:07.477Z,28.40
2022-08-18T08:37:53.660Z,28.60
2022-08-18T08:39:32.399Z,29.00
2022-08-18T08:41:03.236Z,29.20
2022-08-18T08:42:30.697Z,29.40
2022-08-18T08:44:15.423Z,29.60
2022-08-18T08:45:44.279Z,29.80
2022-08-18T08:47:32.476Z,29.90
2022-08-18T08:49:03.263Z,30.00
2022-08-18T08:50:31.105Z,29.90
2022-08-18T08:51:59.057Z,29.80
2022-08-18T08:53:26.712Z,29.80
2022-08-18T08:54:52.315Z,29.70
2022-08-18T08:56:17.470Z,29.70
2022-08-18T08:58:03.019Z,29.70
2022-08-18T08:59:25.770Z,29.70
2022-08-18T09:00:51.683Z,29.70
2022-08-18T09:02:48.301Z,29.70
2022-08-18T09:05:00.986Z,29.70
2022-08-18T09:06:41.031Z,29.60
2022-08-18T09:08:21.606Z,29.60
2022-08-18T09:10:11.127Z,29.60
2022-08-18T09:11:49.081Z,29.50
2022-08-18T09:13:33.078Z,29.50
2022-08-18T09:14:55.107Z,29.50
2022-08-18T09:16:36.146Z,29.50
2022-08-18T09:18:15.361Z,29.60
2022-08-18T09:20:00.540Z,29.80
2022-08-18T09:21:28.300Z,30.00
2022-08-18T09:23:05.114Z,30.10
2022-08-18T09:24:31.585Z,30.20
2022-08-18T09:26:01.025Z,30.30
2022-08-18T09:27:23.094Z,30.40
2022-08-18T09:29:10.964Z,30.50
2022-08-18T09:30:51.584Z,30.60
2022-08-18T09:32:20.151Z,30.60
2022-08-18T09:34:09.711Z,30.60
2022-08-18T09:36:00.511Z,30.60
2022-08-18T09:37:33.767Z,30.70
2022-08-18T09:39:54.687Z,30.80
2022-08-18T09:41:34.261Z,30.80
2022-08-18T09:43:07.598Z,30.80
2022-08-18T09:44:46.483Z,30.90
2022-08-18T09:47:55.045Z,31.20
2022-08-18T09:49:26.637Z,31.40
2022-08-18T09:50:38.309Z,31.00
2022-08-18T09:50:58.185Z,31.30
2022-08-18T09:54:13.278Z,31.20
2022-08-18T09:55:42.529Z,31.30
2022-08-18T09:57:19.373Z,31.40
2022-08-18T09:58:55.417Z,31.50
2022-08-18T10:00:33.552Z,31.50
2022-08-18T10:01:55.899Z,31.50
2022-08-18T10:03:25.963Z,31.50
2022-08-18T10:05:15.880Z,31.50
2022-08-18T10:06:39.256Z,31.50
2022-08-18T10:08:06.265Z,31.40
2022-08-18T10:09:38.190Z,31.30
2022-08-18T10:11:36.988Z,31.10
2022-08-18T10:13:11.917Z,31.10
2022-08-18T10:15:03.050Z,31.10
2022-08-18T10:16:31.962Z,31.20
2022-08-18T10:18:05.144Z,31.20
2022-08-18T10:19:54.561Z,31.10
2022-08-18T10:21:31.450Z,31.00
2022-08-18T10:22:57.315Z,31.00
2022-08-18T10:24:35.054Z,31.00
2022-08-18T10:26:02.794Z,30.90
2022-08-18T10:27:55.611Z,30.70
2022-08-18T10:29:29.746Z,30.70
2022-08-18T10:31:06.340Z,30.60
2022-08-18T10:32:44.383Z,30.60
2022-08-18T10:34:51.381Z,30.40
2022-08-18T10:36:46.572Z,30.30
2022-08-18T10:38:30.947Z,30.20
2022-08-18T10:40:16.069Z,30.00
2022-08-18T10:41:58.392Z,29.90
2022-08-18T10:43:46.246Z,29.80
2022-08-18T10:45:39.626Z,29.80
2022-08-18T10:47:02.907Z,29.70
2022-08-18T10:48:34.662Z,29.80
2022-08-18T10:49:57.512Z,29.70
2022-08-18T10:51:30.403Z,29.70
2022-08-18T10:53:49.808Z,29.80
2022-08-18T10:57:54.569Z,29.60
2022-08-18T10:59:54.466Z,29.60
2022-08-18T11:01:30.863Z,29.60
2022-08-18T11:05:12.692Z,29.80
2022-08-18T11:06:47.515Z,29.80
2022-08-18T11:08:15.880Z,29.90
2022-08-18T11:09:41.884Z,29.90
2022-08-18T11:11:34.174Z,30.10
2022-08-18T11:13:29.254Z,30.30
2022-08-18T11:15:38.621Z,30.50
2022-08-18T11:17:13.077Z,30.70
2022-08-18T11:18:46.211Z,30.90
2022-08-18T11:20:14.894Z,31.10
2022-08-18T11:21:46.273Z,31.30
2022-08-18T11:23:28.316Z,31.50
2022-08-18T11:24:53.247Z,31.60
2022-08-18T11:26:18.441Z,31.70
2022-08-18T11:27:47.110Z,31.70
2022-08-18T11:29:36.500Z,31.70
2022-08-18T11:30:59.882Z,31.80
2022-08-18T11:32:34.804Z,32.00
2022-08-18T11:33:57.013Z,32.00
2022-08-18T11:35:29.517Z,32.10
2022-08-18T11:37:04.493Z,32.20
2022-08-18T11:38:33.031Z,32.40
2022-08-18T11:39:58.640Z,32.50
2022-08-18T11:41:47.815Z,32.70
2022-08-18T11:43:09.945Z,32.90
2022-08-18T11:44:38.471Z,33.10
2022-08-18T11:46:11.553Z,33.20
2022-08-18T11:47:38.019Z,33.30
2022-08-18T11:49:13.814Z,33.40
2022-08-18T11:52:32.596Z,33.70
2022-08-18T11:54:23.212Z,33.80
2022-08-18T11:57:46.351Z,33.80
2022-08-18T11:59:53.140Z,33.80
2022-08-18T12:01:36.065Z,33.80
2022-08-18T12:03:08.319Z,33.90
2022-08-18T12:04:39.637Z,33.90
2022-08-18T12:06:20.182Z,33.90
2022-08-18T12:10:16.015Z,34.10
2022-08-18T12:11:28.013Z,34.20
2022-08-18T12:12:54.197Z,34.20
2022-08-18T12:14:31.210Z,34.30
2022-08-18T12:16:14.263Z,34.30
2022-08-18T12:17:36.511Z,34.40
2022-08-18T12:18:59.595Z,34.50
2022-08-18T12:20:25.549Z,34.40
2022-08-18T12:22:00.271Z,34.40
2022-08-18T12:23:23.703Z,34.50
2022-08-18T12:24:46.767Z,34.40
2022-08-18T12:26:18.845Z,34.60
2022-08-18T12:27:56.113Z,34.60
2022-08-18T12:29:19.159Z,34.60
2022-08-18T12:30:43.110Z,34.50
2022-08-18T12:32:08.574Z,34.40
2022-08-18T12:33:48.287Z,34.30
2022-08-18T12:35:22.554Z,34.30
2022-08-18T12:36:44.914Z,34.20
2022-08-18T12:39:51.373Z,34.30
2022-08-18T12:41:18.603Z,34.30
2022-08-18T12:42:45.932Z,34.30
2022-08-18T12:44:13.384Z,34.20
2022-08-18T12:45:37.877Z,34.20
2022-08-18T12:47:02.897Z,34.10
2022-08-18T12:48:28.853Z,34.20
2022-08-18T12:49:51.626Z,34.20
2022-08-18T12:51:15.136Z,34.20
2022-08-18T12:52:37.407Z,34.30
2022-08-18T12:54:01.098Z,34.40
2022-08-18T12:55:24.095Z,34.40
2022-08-18T12:56:51.623Z,34.60
2022-08-18T12:58:13.918Z,34.60
2022-08-18T12:59:37.585Z,34.70
2022-08-18T13:01:00.014Z,34.70
2022-08-18T13:02:25.955Z,34.80
2022-08-18T13:04:10.732Z,34.90
2022-08-18T13:07:00.167Z,35.10
2022-08-18T13:08:30.666Z,35.10
2022-08-18T13:09:55.608Z,35.10
2022-08-18T13:11:23.774Z,35.20
2022-08-18T13:12:47.211Z,35.20
2022-08-18T13:14:09.765Z,35.20
2022-08-18T13:15:33.263Z,35.30
2022-08-18T13:16:55.499Z,35.20
2022-08-18T13:18:17.636Z,35.20
2022-08-18T13:19:39.828Z,35.20
2022-08-18T13:21:03.528Z,35.30
2022-08-18T13:22:31.896Z,35.30
2022-08-18T13:23:55.280Z,35.30
2022-08-18T13:25:32.281Z,35.30
2022-08-18T13:27:02.380Z,35.20
2022-08-18T13:28:51.585Z,35.20
2022-08-18T13:30:30.771Z,35.10
2022-08-18T13:31:58.154Z,35.10
2022-08-18T13:33:35.391Z,35.10
2022-08-18T13:35:09.041Z,35.10
2022-08-18T13:36:46.007Z,35.10
2022-08-18T13:38:17.064Z,35.10
2022-08-18T13:39:43.923Z,35.00
2022-08-18T13:41:06.423Z,35.00
2022-08-18T13:42:32.138Z,34.90
2022-08-18T13:44:13.298Z,34.80
2022-08-18T13:45:42.713Z,34.80
2022-08-18T13:47:05.547Z,34.80
2022-08-18T13:48:31.982Z,34.90
2022-08-18T13:49:58.604Z,34.90
2022-08-18T13:51:24.325Z,34.90
2022-08-18T13:52:46.568Z,34.90
2022-08-18T13:54:29.733Z,34.90
2022-08-18T13:55:52.987Z,34.80
2022-08-18T13:57:15.504Z,34.80
2022-08-18T13:58:37.783Z,34.90
2022-08-18T14:00:29.528Z,34.90
2022-08-18T14:01:53.369Z,34.90
2022-08-18T14:03:20.621Z,34.90
2022-08-18T14:04:58.559Z,34.80
2022-08-18T14:06:22.696Z,34.70
2022-08-18T14:07:46.392Z,34.70
2022-08-18T14:09:19.330Z,34.70
2022-08-18T14:10:42.202Z,34.70
2022-08-18T14:12:15.424Z,34.70
2022-08-18T14:13:44.564Z,34.70
2022-08-18T14:15:10.607Z,34.70
2022-08-18T14:16:33.685Z,34.70
2022-08-18T14:17:57.277Z,34.70
2022-08-18T14:19:39.964Z,34.80
2022-08-18T14:21:22.910Z,34.70
2022-08-18T14:23:04.206Z,34.40
2022-08-18T14:24:48.926Z,34.00
2022-08-18T14:26:30.368Z,33.70
2022-08-18T14:27:56.329Z,33.40
2022-08-18T14:29:46.873Z,33.10
2022-08-18T14:31:03.113Z,32.90
2022-08-18T14:32:31.927Z,32.70
2022-08-18T14:34:04.052Z,32.60
2022-08-18T14:36:03.827Z,32.40
2022-08-18T14:37:09.926Z,32.30
2022-08-18T14:38:35.417Z,32.10
2022-08-18T14:39:58.568Z,31.90
2022-08-18T14:41:21.071Z,31.80
2022-08-18T14:42:54.942Z,31.90
2022-08-18T14:44:23.923Z,31.90
2022-08-18T14:45:48.631Z,31.80
2022-08-18T14:47:11.471Z,31.80
2022-08-18T14:48:33.697Z,31.80
2022-08-18T14:50:00.950Z,31.80
2022-08-18T14:51:27.209Z,31.70
2022-08-18T14:52:51.220Z,31.70
2022-08-18T14:54:17.876Z,31.50
2022-08-18T14:55:40.418Z,31.40
2022-08-18T14:57:03.397Z,31.20
2022-08-18T14:58:29.176Z,31.10
2022-08-18T14:59:51.307Z,31.00
2022-08-18T15:01:16.017Z,31.00
2022-08-18T15:02:39.522Z,30.90
2022-08-18T15:04:18.489Z,30.90
2022-08-18T15:05:42.439Z,30.70
2022-08-18T15:07:04.832Z,30.60
2022-08-18T15:08:34.450Z,30.60
2022-08-18T15:10:15.227Z,30.50
2022-08-18T15:11:39.179Z,30.50
2022-08-18T15:13:04.094Z,30.60
2022-08-18T15:14:33.130Z,30.60
2022-08-18T15:15:55.936Z,30.70
2022-08-18T15:17:24.214Z,30.70
2022-08-18T15:18:47.227Z,30.80
2022-08-18T15:20:11.619Z,30.80
2022-08-18T15:21:52.381Z,30.80
2022-08-18T15:23:34.019Z,30.70
2022-08-18T15:25:15.503Z,30.70
2022-08-18T15:26:39.908Z,30.70
2022-08-18T15:28:02.905Z,30.70
2022-08-18T15:29:27.795Z,30.80
2022-08-18T15:31:16.489Z,30.80
2022-08-18T15:32:34.877Z,30.90
2022-08-18T15:33:57.652Z,30.90
2022-08-18T15:35:20.169Z,30.80
2022-08-18T15:36:42.947Z,30.80
2022-08-18T15:38:05.651Z,30.80
2022-08-18T15:39:28.007Z,30.80
2022-08-18T15:40:58.157Z,30.80
2022-08-18T15:42:20.797Z,30.90
2022-08-18T15:43:46.415Z,30.90
2022-08-18T15:45:11.917Z,31.00
2022-08-18T15:46:38.141Z,31.10
2022-08-18T15:48:03.727Z,31.20
2022-08-18T15:49:26.341Z,31.20
2022-08-18T15:50:51.214Z,31.30
2022-08-18T15:52:13.817Z,31.40
2022-08-18T15:53:44.955Z,31.50
2022-08-18T15:55:08.269Z,31.60
2022-08-18T15:56:32.907Z,31.70
2022-08-18T15:57:58.129Z,31.90
2022-08-18T15:59:22.036Z,32.00
2022-08-18T16:00:49.203Z,32.10
2022-08-18T16:02:19.244Z,32.20
2022-08-18T16:03:42.083Z,32.20
2022-08-18T16:05:12.127Z,32.30
2022-08-18T16:06:40.956Z,32.30
2022-08-18T16:08:06.020Z,32.20
2022-08-18T16:09:28.137Z,32.20
2022-08-18T16:10:50.506Z,32.10
2022-08-18T16:12:12.587Z,32.10
2022-08-18T16:13:35.006Z,32.20
2022-08-18T16:14:57.222Z,32.20
2022-08-18T16:16:29.192Z,32.20
2022-08-18T16:17:57.482Z,32.20
2022-08-18T16:19:19.635Z,32.20
2022-08-18T16:20:48.237Z,32.20
2022-08-18T16:22:13.409Z,32.10
2022-08-18T16:23:37.009Z,32.00
2022-08-18T16:25:04.487Z,32.00
2022-08-18T16:26:26.624Z,32.00
2022-08-18T16:27:48.954Z,32.00
2022-08-18T16:29:11.151Z,32.00
2022-08-18T16:30:33.825Z,32.10
2022-08-18T16:31:55.955Z,32.10
2022-08-18T16:33:18.064Z,32.10
2022-08-18T16:34:41.264Z,32.00
2022-08-18T16:36:08.947Z,31.80
2022-08-18T16:37:31.066Z,31.60
2022-08-18T16:38:58.438Z,31.50
2022-08-18T16:40:21.181Z,31.50
2022-08-18T16:41:44.153Z,31.40
2022-08-18T16:43:07.266Z,31.40
2022-08-18T16:44:29.864Z,31.40
2022-08-18T16:45:52.440Z,31.40
2022-08-18T16:47:18.211Z,31.50
2022-08-18T16:48:40.937Z,31.50
2022-08-18T16:50:15.851Z,31.60
2022-08-18T16:51:38.255Z,31.60
2022-08-18T16:53:00.429Z,31.70
2022-08-18T16:54:22.731Z,31.70
2022-08-18T16:55:45.407Z,31.70
2022-08-18T16:57:07.603Z,31.70
2022-08-18T16:58:48.349Z,31.70
2022-08-18T17:00:29.332Z,31.70
2022-08-18T17:02:09.980Z,31.80
2022-08-18T17:04:01.152Z,31.80
2022-08-18T17:05:23.303Z,31.80
2022-08-18T17:06:48.029Z,31.70
2022-08-18T17:08:10.239Z,31.70
2022-08-18T17:09:34.059Z,31.60
2022-08-18T17:10:56.237Z,31.60
2022-08-18T17:12:18.563Z,31.60
2022-08-18T17:13:42.099Z,31.50
2022-08-18T17:15:04.582Z,31.50
2022-08-18T17:16:28.806Z,31.40
2022-08-18T17:17:51.002Z,31.30
2022-08-18T17:19:14.048Z,31.30
2022-08-18T17:20:36.525Z,31.20
2022-08-18T17:21:58.649Z,31.20
2022-08-18T17:23:20.708Z,31.10
2022-08-18T17:24:46.346Z,31.00
2022-08-18T17:26:30.728Z,30.90
2022-08-18T17:27:53.552Z,30.80
2022-08-18T17:29:20.542Z,30.60
2022-08-18T17:30:48.527Z,30.60
2022-08-18T17:32:48.123Z,30.40
2022-08-18T17:34:14.808Z,30.30
2022-08-18T17:35:42.955Z,30.20
2022-08-18T17:37:09.169Z,30.10
2022-08-18T17:38:47.903Z,30.00
2022-08-18T17:40:35.220Z,30.00
2022-08-18T17:42:17.328Z,29.90
2022-08-18T17:45:21.666Z,29.80
2022-08-18T17:46:44.459Z,29.80
2022-08-18T17:48:25.287Z,29.80
2022-08-18T17:50:27.894Z,29.60
2022-08-18T17:51:55.327Z,29.60
2022-08-18T17:53:17.648Z,29.60
2022-08-18T17:54:46.109Z,29.50
2022-08-18T17:56:17.945Z,29.40
2022-08-18T17:58:01.601Z,29.30
2022-08-18T17:59:46.390Z,29.10
2022-08-18T18:01:15.290Z,29.00
2022-08-18T18:02:38.796Z,28.90
2022-08-18T18:04:01.448Z,28.80
2022-08-18T18:05:29.717Z,28.80
2022-08-18T18:06:54.795Z,28.70
2022-08-18T18:08:18.531Z,28.60
2022-08-18T18:09:40.636Z,28.40
2022-08-18T18:11:12.036Z,28.40
2022-08-18T18:12:35.950Z,28.30
2022-08-18T18:14:00.651Z,28.20
2022-08-18T18:15:32.277Z,28.10
2022-08-18T18:17:14.434Z,28.00
2022-08-18T18:18:45.131Z,28.00
2022-08-18T18:20:15.610Z,27.90
2022-08-18T18:22:00.761Z,27.80
2022-08-18T18:23:24.041Z,27.80
2022-08-18T18:24:52.702Z,27.70
2022-08-18T18:26:34.667Z,27.60
2022-08-18T18:27:56.854Z,27.60
2022-08-18T18:29:30.688Z,27.60
2022-08-18T18:31:27.674Z,27.50
2022-08-18T18:33:00.516Z,27.50
2022-08-18T18:34:39.687Z,27.40
2022-08-18T18:36:02.044Z,27.40
2022-08-18T18:37:27.653Z,27.30
2022-08-18T18:39:07.338Z,27.20
2022-08-18T18:40:53.332Z,27.10
2022-08-18T18:42:24.475Z,27.00
2022-08-18T18:43:50.126Z,26.90
2022-08-18T18:45:31.178Z,26.90
2022-08-18T18:47:01.235Z,26.90
2022-08-18T18:48:51.116Z,26.80
2022-08-18T18:50:21.090Z,26.80
2022-08-18T18:52:11.200Z,26.70
2022-08-18T18:54:03.545Z,26.60
2022-08-18T18:55:28.235Z,26.50
2022-08-18T18:56:56.497Z,26.40
2022-08-18T18:58:27.307Z,26.30
2022-08-18T19:00:21.930Z,26.10
2022-08-18T19:01:52.779Z,26.10
2022-08-18T19:03:28.845Z,25.90
2022-08-18T19:05:07.644Z,25.80
2022-08-18T19:06:46.702Z,25.70
2022-08-18T19:08:23.995Z,25.60
2022-08-18T19:10:21.308Z,25.60
2022-08-18T19:11:43.320Z,25.40
2022-08-18T19:13:24.956Z,25.40
2022-08-18T19:15:00.159Z,25.30
2022-08-18T19:16:43.734Z,25.30
2022-08-18T19:18:26.268Z,25.20
2022-08-18T19:19:57.591Z,25.10
2022-08-18T19:22:04.975Z,25.00
2022-08-18T19:23:15.321Z,25.00
2022-08-18T19:25:05.937Z,24.90
2022-08-18T19:26:33.640Z,24.80
2022-08-18T19:28:03.239Z,24.70
2022-08-18T19:29:30.029Z,24.70
2022-08-18T19:30:54.945Z,24.60
2022-08-18T19:32:20.974Z,24.50
2022-08-18T19:33:56.640Z,24.50
2022-08-18T19:35:39.198Z,24.40
2022-08-18T19:37:22.713Z,24.30
2022-08-18T19:39:05.950Z,24.30
2022-08-18T19:40:54.439Z,24.30
2022-08-18T19:42:24.479Z,24.30
2022-08-18T19:43:56.283Z,24.30